KEST/EST METAR and TAF weather

Enter ICAO airport designator
Station Type Date Time Source
KEST METAR 2019/12/12 16:52 UTC NOAA

KEST 121652Z AUTO 33012KT 5SM BR BKN008 OVC014 M07/M08 A2998 RMK AO2 SLP177 T10671083


Station Type Date Time Source
KEST Decoded METAR 2019/12/12 16:52 UTC NOAA

ESTHERVILLE MUNICIPAL AIRPORT , IA, United States (KEST) 43-24N 94-45W 401M
Dec 12, 2019 - 11:52 AM EST / 2019.12.12 1652 UTC
Wind: from the NNW (330 degrees) at 14 MPH (12 KT):0
Visibility: 5 mile(s):0
Sky conditions: overcast
Weather: mist
Temperature: 19.9 F (-6.7 C)
Windchill: 6 F (-14 C):1
Dew Point: 17.1 F (-8.3 C)
Relative Humidity: 88%
Pressure (altimeter): 29.98 in. Hg (1015 hPa)
ob: KEST 121652Z AUTO 33012KT 5SM BR BKN008 OVC014 M07/M08 A2998 RMK AO2 SLP177 T10671083
cycle: 17

Station Type Date Time Source
KEST TAF UTC NOAA

Error!

Example: see airport list